sensor_id;sensor_type;location;lat;lon;timestamp;pressure;altitude;pressure_sealevel;temperature;humidity
76434;BME280;65265;53.200;6.080;2023-07-02T00:03:37;100512.22;;;15.86;80.77
76434;BME280;65265;53.200;6.080;2023-07-02T00:08:30;100516.38;;;15.75;81.39
76434;BME280;65265;53.200;6.080;2023-07-02T00:13:25;100517.16;;;15.70;82.14
76434;BME280;65265;53.200;6.080;2023-07-02T00:18:18;100505.91;;;15.65;82.54
76434;BME280;65265;53.200;6.080;2023-07-02T00:23:11;100508.34;;;15.54;83.76
76434;BME280;65265;53.200;6.080;2023-07-02T00:28:03;100498.81;;;15.49;84.50
76434;BME280;65265;53.200;6.080;2023-07-02T00:33:00;100506.44;;;15.41;84.71
76434;BME280;65265;53.200;6.080;2023-07-02T00:37:54;100499.41;;;15.31;85.71
76434;BME280;65265;53.200;6.080;2023-07-02T00:42:47;100508.75;;;15.28;85.43
76434;BME280;65265;53.200;6.080;2023-07-02T00:47:41;100492.31;;;15.18;85.48
76434;BME280;65265;53.200;6.080;2023-07-02T00:52:38;100505.09;;;15.15;85.67
76434;BME280;65265;53.200;6.080;2023-07-02T00:57:30;100497.94;;;14.98;87.07
76434;BME280;65265;53.200;6.080;2023-07-02T01:02:24;100503.22;;;15.04;86.59
76434;BME280;65265;53.200;6.080;2023-07-02T01:07:20;100491.00;;;14.92;87.29
76434;BME280;65265;53.200;6.080;2023-07-02T01:12:17;100496.25;;;14.98;87.21
76434;BME280;65265;53.200;6.080;2023-07-02T01:17:13;100481.38;;;14.82;87.38
76434;BME280;65265;53.200;6.080;2023-07-02T01:22:12;100478.75;;;14.79;88.35
76434;BME280;65265;53.200;6.080;2023-07-02T01:27:06;100490.63;;;14.70;88.82
76434;BME280;65265;53.200;6.080;2023-07-02T01:32:01;100488.84;;;14.67;89.01
76434;BME280;65265;53.200;6.080;2023-07-02T01:36:55;100487.84;;;14.59;89.08
76434;BME280;65265;53.200;6.080;2023-07-02T01:41:53;100492.06;;;14.54;88.92
76434;BME280;65265;53.200;6.080;2023-07-02T01:46:49;100491.88;;;14.45;89.45
76434;BME280;65265;53.200;6.080;2023-07-02T01:51:45;100494.44;;;14.45;90.03
76434;BME280;65265;53.200;6.080;2023-07-02T01:56:41;100489.97;;;14.36;90.00
76434;BME280;65265;53.200;6.080;2023-07-02T02:01:36;100496.88;;;14.38;90.27
76434;BME280;65265;53.200;6.080;2023-07-02T02:06:32;100492.31;;;14.24;90.75
76434;BME280;65265;53.200;6.080;2023-07-02T02:11:25;100485.22;;;14.14;91.87
76434;BME280;65265;53.200;6.080;2023-07-02T02:16:23;100502.59;;;14.22;91.60
76434;BME280;65265;53.200;6.080;2023-07-02T02:21:19;100504.28;;;14.22;92.25
76434;BME280;65265;53.200;6.080;2023-07-02T02:26:13;100502.63;;;14.25;91.85
76434;BME280;65265;53.200;6.080;2023-07-02T02:31:07;100503.44;;;14.23;92.52
76434;BME280;65265;53.200;6.080;2023-07-02T02:36:01;100518.91;;;14.26;92.23
76434;BME280;65265;53.200;6.080;2023-07-02T02:40:56;100514.53;;;14.20;92.33
76434;BME280;65265;53.200;6.080;2023-07-02T02:45:49;100518.88;;;14.23;92.50
76434;BME280;65265;53.200;6.080;2023-07-02T02:50:43;100526.13;;;14.43;90.90
76434;BME280;65265;53.200;6.080;2023-07-02T02:55:37;100511.66;;;14.49;90.39
76434;BME280;65265;53.200;6.080;2023-07-02T03:00:36;100516.97;;;14.57;89.27
76434;BME280;65265;53.200;6.080;2023-07-02T03:05:34;100515.31;;;14.60;89.54
76434;BME280;65265;53.200;6.080;2023-07-02T03:10:28;100505.94;;;14.64;88.40
76434;BME280;65265;53.200;6.080;2023-07-02T03:15:21;100511.91;;;14.61;88.61
76434;BME280;65265;53.200;6.080;2023-07-02T03:20:16;100512.06;;;14.70;86.26
76434;BME280;65265;53.200;6.080;2023-07-02T03:25:09;100521.72;;;14.82;85.16
76434;BME280;65265;53.200;6.080;2023-07-02T03:30:03;100515.94;;;14.95;82.24
76434;BME280;65265;53.200;6.080;2023-07-02T03:34:56;100528.78;;;14.93;83.51
76434;BME280;65265;53.200;6.080;2023-07-02T03:39:53;100525.44;;;14.99;83.37
76434;BME280;65265;53.200;6.080;2023-07-02T03:44:45;100513.41;;;14.98;82.61
76434;BME280;65265;53.200;6.080;2023-07-02T03:49:38;100520.31;;;15.00;84.04
76434;BME280;65265;53.200;6.080;2023-07-02T03:54:31;100531.59;;;15.05;84.35
76434;BME280;65265;53.200;6.080;2023-07-02T03:59:27;100527.41;;;15.13;82.68
76434;BME280;65265;53.200;6.080;2023-07-02T04:04:19;100544.66;;;15.19;82.96
76434;BME280;65265;53.200;6.080;2023-07-02T04:09:12;100546.47;;;15.23;80.29
76434;BME280;65265;53.200;6.080;2023-07-02T04:14:05;100554.97;;;15.17;80.45
76434;BME280;65265;53.200;6.080;2023-07-02T04:19:00;100562.63;;;15.14;79.10
76434;BME280;65265;53.200;6.080;2023-07-02T04:23:54;100548.81;;;15.09;78.85
76434;BME280;65265;53.200;6.080;2023-07-02T04:28:48;100543.47;;;14.97;78.70
76434;BME280;65265;53.200;6.080;2023-07-02T04:33:41;100556.34;;;14.99;77.78
76434;BME280;65265;53.200;6.080;2023-07-02T04:38:37;100554.66;;;14.99;76.60
76434;BME280;65265;53.200;6.080;2023-07-02T04:43:33;100559.91;;;15.05;75.04
76434;BME280;65265;53.200;6.080;2023-07-02T04:48:28;100563.53;;;15.18;76.24
76434;BME280;65265;53.200;6.080;2023-07-02T04:53:22;100563.44;;;15.10;77.34
76434;BME280;65265;53.200;6.080;2023-07-02T04:58:18;100569.41;;;15.09;77.98
76434;BME280;65265;53.200;6.080;2023-07-02T05:03:11;100579.88;;;15.18;78.45
76434;BME280;65265;53.200;6.080;2023-07-02T05:08:06;100576.38;;;15.15;80.21
76434;BME280;65265;53.200;6.080;2023-07-02T05:12:59;100575.66;;;15.23;79.49
76434;BME280;65265;53.200;6.080;2023-07-02T05:17:54;100568.94;;;15.30;79.40
76434;BME280;65265;53.200;6.080;2023-07-02T05:22:48;100582.81;;;15.38;77.41
76434;BME280;65265;53.200;6.080;2023-07-02T05:27:42;100582.00;;;15.40;78.77
76434;BME280;65265;53.200;6.080;2023-07-02T05:32:36;100586.41;;;15.47;80.03
76434;BME280;65265;53.200;6.080;2023-07-02T05:37:33;100592.44;;;15.49;80.68
76434;BME280;65265;53.200;6.080;2023-07-02T05:42:26;100590.66;;;15.45;80.36
76434;BME280;65265;53.200;6.080;2023-07-02T05:47:19;100594.09;;;15.44;80.45
76434;BME280;65265;53.200;6.080;2023-07-02T05:52:11;100606.16;;;15.47;79.90
76434;BME280;65265;53.200;6.080;2023-07-02T05:57:07;100612.25;;;15.50;81.21
76434;BME280;65265;53.200;6.080;2023-07-02T06:02:00;100616.59;;;15.54;81.90
76434;BME280;65265;53.200;6.080;2023-07-02T06:06:53;100620.22;;;15.65;76.93
76434;BME280;65265;53.200;6.080;2023-07-02T06:11:45;100611.78;;;15.75;76.04
76434;BME280;65265;53.200;6.080;2023-07-02T06:16:41;100615.19;;;15.74;75.07
76434;BME280;65265;53.200;6.080;2023-07-02T06:21:34;100628.94;;;15.73;73.34
76434;BME280;65265;53.200;6.080;2023-07-02T06:26:28;100643.59;;;15.77;74.55
76434;BME280;65265;53.200;6.080;2023-07-02T06:31:22;100634.94;;;15.74;73.50
76434;BME280;65265;53.200;6.080;2023-07-02T06:36:18;100646.34;;;15.86;72.89
76434;BME280;65265;53.200;6.080;2023-07-02T06:41:11;100648.28;;;16.02;73.59
76434;BME280;65265;53.200;6.080;2023-07-02T06:46:03;100657.78;;;16.05;71.76
76434;BME280;65265;53.200;6.080;2023-07-02T06:50:56;100657.13;;;16.16;71.70
76434;BME280;65265;53.200;6.080;2023-07-02T06:55:53;100660.50;;;16.15;74.01
76434;BME280;65265;53.200;6.080;2023-07-02T07:00:46;100676.94;;;16.20;70.21
76434;BME280;65265;53.200;6.080;2023-07-02T07:05:38;100688.44;;;16.40;72.11
76434;BME280;65265;53.200;6.080;2023-07-02T07:10:32;100685.88;;;16.42;71.80
76434;BME280;65265;53.200;6.080;2023-07-02T07:15:32;100689.63;;;16.65;69.62
76434;BME280;65265;53.200;6.080;2023-07-02T07:20:27;100683.63;;;16.67;70.61
76434;BME280;65265;53.200;6.080;2023-07-02T07:25:20;100690.66;;;16.77;70.24
76434;BME280;65265;53.200;6.080;2023-07-02T07:30:13;100665.91;;;16.94;70.95
76434;BME280;65265;53.200;6.080;2023-07-02T07:35:09;100680.63;;;17.04;67.21
76434;BME280;65265;53.200;6.080;2023-07-02T07:40:01;100695.50;;;17.26;68.65
76434;BME280;65265;53.200;6.080;2023-07-02T07:44:57;100691.09;;;17.16;69.69
76434;BME280;65265;53.200;6.080;2023-07-02T07:49:49;100699.53;;;17.00;68.52
76434;BME280;65265;53.200;6.080;2023-07-02T07:54:44;100700.09;;;16.77;70.46
76434;BME280;65265;53.200;6.080;2023-07-02T07:59:36;100701.06;;;16.83;71.95
76434;BME280;65265;53.200;6.080;2023-07-02T08:04:28;100716.56;;;16.83;72.19
76434;BME280;65265;53.200;6.080;2023-07-02T08:09:20;100726.94;;;16.86;74.42
76434;BME280;65265;53.200;6.080;2023-07-02T08:14:18;100732.13;;;16.89;71.60
76434;BME280;65265;53.200;6.080;2023-07-02T08:19:11;100734.34;;;16.61;73.79
76434;BME280;65265;53.200;6.080;2023-07-02T08:24:04;100725.78;;;16.65;75.59
76434;BME280;65265;53.200;6.080;2023-07-02T08:28:58;100735.44;;;16.79;77.61
76434;BME280;65265;53.200;6.080;2023-07-02T08:33:54;100742.44;;;16.88;74.56
76434;BME280;65265;53.200;6.080;2023-07-02T08:38:46;100732.53;;;17.22;72.74
76434;BME280;65265;53.200;6.080;2023-07-02T08:43:40;100741.25;;;17.30;72.25
76434;BME280;65265;53.200;6.080;2023-07-02T08:48:33;100749.06;;;17.34;71.77
76434;BME280;65265;53.200;6.080;2023-07-02T08:53:28;100746.72;;;17.57;70.55
76434;BME280;65265;53.200;6.080;2023-07-02T08:58:24;100765.03;;;17.76;67.99
76434;BME280;65265;53.200;6.080;2023-07-02T09:03:16;100764.28;;;17.88;67.48
76434;BME280;65265;53.200;6.080;2023-07-02T09:08:08;100769.75;;;18.21;65.82
76434;BME280;65265;53.200;6.080;2023-07-02T09:13:06;100779.50;;;18.52;68.22
76434;BME280;65265;53.200;6.080;2023-07-02T09:18:00;100778.72;;;18.62;64.31
76434;BME280;65265;53.200;6.080;2023-07-02T09:22:54;100781.47;;;18.92;62.37
76434;BME280;65265;53.200;6.080;2023-07-02T09:27:48;100796.19;;;18.96;66.41
76434;BME280;65265;53.200;6.080;2023-07-02T09:32:43;100785.88;;;19.08;65.86
76434;BME280;65265;53.200;6.080;2023-07-02T09:37:38;100802.22;;;18.96;62.27
76434;BME280;65265;53.200;6.080;2023-07-02T09:42:33;100787.78;;;19.42;62.89
76434;BME280;65265;53.200;6.080;2023-07-02T09:47:29;100780.06;;;19.88;54.88
76434;BME280;65265;53.200;6.080;2023-07-02T09:52:28;100795.59;;;19.71;58.84
76434;BME280;65265;53.200;6.080;2023-07-02T09:57:21;100792.88;;;19.27;61.96
76434;BME280;65265;53.200;6.080;2023-07-02T10:02:14;100797.94;;;19.07;61.77
76434;BME280;65265;53.200;6.080;2023-07-02T10:07:06;100782.34;;;18.95;61.40
76434;BME280;65265;53.200;6.080;2023-07-02T10:12:14;100800.75;;;19.49;63.42
76434;BME280;65265;53.200;6.080;2023-07-02T10:17:09;100779.19;;;19.69;65.34
76434;BME280;65265;53.200;6.080;2023-07-02T10:22:02;100794.59;;;19.22;60.87
76434;BME280;65265;53.200;6.080;2023-07-02T10:26:56;100799.69;;;19.07;62.49
76434;BME280;65265;53.200;6.080;2023-07-02T10:31:54;100820.34;;;18.90;60.58
76434;BME280;65265;53.200;6.080;2023-07-02T10:36:53;100812.38;;;18.60;63.90
76434;BME280;65265;53.200;6.080;2023-07-02T10:41:46;100807.88;;;18.37;64.79
76434;BME280;65265;53.200;6.080;2023-07-02T10:46:44;100837.50;;;18.72;60.28
76434;BME280;65265;53.200;6.080;2023-07-02T10:51:40;100830.75;;;19.04;64.47
76434;BME280;65265;53.200;6.080;2023-07-02T10:56:32;100833.63;;;19.44;60.91
76434;BME280;65265;53.200;6.080;2023-07-02T11:01:28;100832.00;;;19.94;60.18
76434;BME280;65265;53.200;6.080;2023-07-02T11:06:21;100837.28;;;20.36;59.43
76434;BME280;65265;53.200;6.080;2023-07-02T11:11:15;100832.84;;;19.76;60.25
76434;BME280;65265;53.200;6.080;2023-07-02T11:16:18;100842.47;;;20.07;58.68
76434;BME280;65265;53.200;6.080;2023-07-02T11:21:11;100845.03;;;20.06;60.00
76434;BME280;65265;53.200;6.080;2023-07-02T11:26:04;100844.91;;;19.61;60.65
76434;BME280;65265;53.200;6.080;2023-07-02T11:31:00;100859.63;;;19.63;61.14
76434;BME280;65265;53.200;6.080;2023-07-02T11:35:54;100869.84;;;19.34;60.49
76434;BME280;65265;53.200;6.080;2023-07-02T11:40:47;100865.41;;;19.15;59.22
76434;BME280;65265;53.200;6.080;2023-07-02T11:45:41;100856.16;;;19.67;58.73
76434;BME280;65265;53.200;6.080;2023-07-02T11:50:37;100858.88;;;20.15;58.53
76434;BME280;65265;53.200;6.080;2023-07-02T11:55:30;100857.13;;;19.99;56.89
76434;BME280;65265;53.200;6.080;2023-07-02T12:00:23;100870.19;;;20.35;55.27
76434;BME280;65265;53.200;6.080;2023-07-02T12:05:17;100872.75;;;20.05;54.84
76434;BME280;65265;53.200;6.080;2023-07-02T12:10:13;100877.88;;;20.02;54.79
76434;BME280;65265;53.200;6.080;2023-07-02T12:15:05;100872.63;;;19.72;59.39
76434;BME280;65265;53.200;6.080;2023-07-02T12:19:58;100871.81;;;19.91;58.62
76434;BME280;65265;53.200;6.080;2023-07-02T12:24:51;100883.84;;;19.67;56.12
76434;BME280;65265;53.200;6.080;2023-07-02T12:29:52;100902.66;;;19.23;57.39
76434;BME280;65265;53.200;6.080;2023-07-02T12:34:45;100906.69;;;18.85;59.04
76434;BME280;65265;53.200;6.080;2023-07-02T12:39:39;100909.91;;;18.60;60.38
76434;BME280;65265;53.200;6.080;2023-07-02T12:44:31;100909.00;;;18.50;63.08
76434;BME280;65265;53.200;6.080;2023-07-02T12:49:29;100919.25;;;18.40;60.28
76434;BME280;65265;53.200;6.080;2023-07-02T12:54:22;100911.00;;;18.84;61.77
76434;BME280;65265;53.200;6.080;2023-07-02T12:59:15;100908.75;;;19.28;62.58
76434;BME280;65265;53.200;6.080;2023-07-02T13:04:08;100925.78;;;18.96;63.37
76434;BME280;65265;53.200;6.080;2023-07-02T13:09:03;100932.63;;;18.91;59.09
76434;BME280;65265;53.200;6.080;2023-07-02T13:13:56;100945.09;;;19.37;58.15
76434;BME280;65265;53.200;6.080;2023-07-02T13:18:49;100947.38;;;18.96;62.21
76434;BME280;65265;53.200;6.080;2023-07-02T13:23:42;100946.63;;;19.11;64.81
76434;BME280;65265;53.200;6.080;2023-07-02T13:28:38;100939.69;;;19.08;62.70
76434;BME280;65265;53.200;6.080;2023-07-02T13:33:31;100955.84;;;18.77;59.81
76434;BME280;65265;53.200;6.080;2023-07-02T13:38:24;100957.47;;;18.65;61.50
76434;BME280;65265;53.200;6.080;2023-07-02T13:43:16;100947.69;;;18.34;60.25
76434;BME280;65265;53.200;6.080;2023-07-02T13:48:12;100968.13;;;18.13;61.32
76434;BME280;65265;53.200;6.080;2023-07-02T13:53:06;100961.16;;;18.06;63.52
76434;BME280;65265;53.200;6.080;2023-07-02T13:57:58;100942.91;;;17.95;65.21
76434;BME280;65265;53.200;6.080;2023-07-02T14:02:56;100972.47;;;18.15;62.18
76434;BME280;65265;53.200;6.080;2023-07-02T14:07:49;100973.16;;;18.01;62.30
76434;BME280;65265;53.200;6.080;2023-07-02T14:12:42;100955.66;;;17.82;66.80
76434;BME280;65265;53.200;6.080;2023-07-02T14:17:35;100959.19;;;17.87;65.04
76434;BME280;65265;53.200;6.080;2023-07-02T14:22:30;100953.34;;;18.03;65.39
76434;BME280;65265;53.200;6.080;2023-07-02T14:27:23;100960.38;;;18.14;61.99
76434;BME280;65265;53.200;6.080;2023-07-02T14:32:16;100974.97;;;18.08;60.94
76434;BME280;65265;53.200;6.080;2023-07-02T14:37:10;100972.00;;;18.49;63.14
76434;BME280;65265;53.200;6.080;2023-07-02T14:42:04;100973.22;;;18.89;59.28
76434;BME280;65265;53.200;6.080;2023-07-02T14:46:58;100961.09;;;18.83;56.35
76434;BME280;65265;53.200;6.080;2023-07-02T14:51:51;100974.81;;;18.72;53.54
76434;BME280;65265;53.200;6.080;2023-07-02T14:56:44;100960.78;;;18.50;58.88
76434;BME280;65265;53.200;6.080;2023-07-02T15:01:39;100968.38;;;18.31;58.72
76434;BME280;65265;53.200;6.080;2023-07-02T15:06:32;100972.34;;;18.05;59.78
76434;BME280;65265;53.200;6.080;2023-07-02T15:11:25;100973.09;;;17.95;60.52
76434;BME280;65265;53.200;6.080;2023-07-02T15:16:19;100980.63;;;17.77;61.52
76434;BME280;65265;53.200;6.080;2023-07-02T15:21:19;100984.91;;;17.75;61.33
76434;BME280;65265;53.200;6.080;2023-07-02T15:26:13;100985.47;;;17.53;61.31
76434;BME280;65265;53.200;6.080;2023-07-02T15:31:07;100972.09;;;17.26;63.08
76434;BME280;65265;53.200;6.080;2023-07-02T15:36:02;100980.69;;;17.23;64.35
76434;BME280;65265;53.200;6.080;2023-07-02T15:41:08;100978.03;;;17.20;65.19
76434;BME280;65265;53.200;6.080;2023-07-02T15:46:02;100984.75;;;17.09;65.92
76434;BME280;65265;53.200;6.080;2023-07-02T15:50:54;100976.66;;;16.87;66.20
76434;BME280;65265;53.200;6.080;2023-07-02T15:55:46;100974.13;;;16.89;67.90
76434;BME280;65265;53.200;6.080;2023-07-02T16:00:42;100966.56;;;17.02;66.82
76434;BME280;65265;53.200;6.080;2023-07-02T16:05:36;100959.00;;;17.12;67.81
76434;BME280;65265;53.200;6.080;2023-07-02T16:10:30;100964.38;;;17.27;68.05
76434;BME280;65265;53.200;6.080;2023-07-02T16:15:24;100970.47;;;17.31;66.32
76434;BME280;65265;53.200;6.080;2023-07-02T16:20:20;100973.91;;;17.30;62.67
76434;BME280;65265;53.200;6.080;2023-07-02T16:25:13;100975.50;;;17.22;63.37
76434;BME280;65265;53.200;6.080;2023-07-02T16:30:07;100975.38;;;17.16;64.22
76434;BME280;65265;53.200;6.080;2023-07-02T16:35:04;100969.34;;;17.12;64.45
76434;BME280;65265;53.200;6.080;2023-07-02T16:40:02;100965.91;;;17.15;65.33
76434;BME280;65265;53.200;6.080;2023-07-02T16:44:55;100975.28;;;17.07;64.43
76434;BME280;65265;53.200;6.080;2023-07-02T16:49:48;100962.28;;;17.02;63.49
76434;BME280;65265;53.200;6.080;2023-07-02T16:54:40;100935.09;;;16.72;65.94
76434;BME280;65265;53.200;6.080;2023-07-02T16:59:35;100964.59;;;16.86;66.62
76434;BME280;65265;53.200;6.080;2023-07-02T17:04:29;100960.94;;;16.74;70.12
76434;BME280;65265;53.200;6.080;2023-07-02T17:09:24;100959.09;;;16.68;72.20
76434;BME280;65265;53.200;6.080;2023-07-02T17:14:21;100952.09;;;16.60;72.83
76434;BME280;65265;53.200;6.080;2023-07-02T17:19:18;100959.91;;;16.66;70.01
76434;BME280;65265;53.200;6.080;2023-07-02T17:24:11;100950.72;;;16.81;68.22
76434;BME280;65265;53.200;6.080;2023-07-02T17:29:04;100953.38;;;16.84;66.91
76434;BME280;65265;53.200;6.080;2023-07-02T17:33:57;100943.16;;;16.92;67.69
76434;BME280;65265;53.200;6.080;2023-07-02T17:38:51;100939.81;;;16.98;67.61
76434;BME280;65265;53.200;6.080;2023-07-02T17:43:46;100939.81;;;16.98;65.68
76434;BME280;65265;53.200;6.080;2023-07-02T17:48:39;100936.47;;;17.05;64.77
76434;BME280;65265;53.200;6.080;2023-07-02T17:53:32;100926.09;;;17.04;66.58
76434;BME280;65265;53.200;6.080;2023-07-02T17:58:27;100916.69;;;17.06;65.16
76434;BME280;65265;53.200;6.080;2023-07-02T18:03:20;100916.69;;;17.06;64.19
76434;BME280;65265;53.200;6.080;2023-07-02T18:08:13;100912.97;;;16.89;64.94
76434;BME280;65265;53.200;6.080;2023-07-02T18:13:07;100912.97;;;16.89;65.08
76434;BME280;65265;53.200;6.080;2023-07-02T18:18:03;100917.25;;;16.87;67.44
76434;BME280;65265;53.200;6.080;2023-07-02T18:22:57;100919.63;;;16.75;70.85
76434;BME280;65265;53.200;6.080;2023-07-02T18:28:03;100908.34;;;16.70;72.58
76434;BME280;65265;53.200;6.080;2023-07-02T18:32:57;100899.13;;;16.34;76.46
76434;BME280;65265;53.200;6.080;2023-07-02T18:37:52;100909.19;;;16.22;78.92
76434;BME280;65265;53.200;6.080;2023-07-02T18:42:47;100894.31;;;16.07;80.22
76434;BME280;65265;53.200;6.080;2023-07-02T18:47:40;100902.69;;;15.94;81.70
76434;BME280;65265;53.200;6.080;2023-07-02T18:52:33;100901.59;;;15.83;83.83
76434;BME280;65265;53.200;6.080;2023-07-02T18:57:29;100893.69;;;15.76;84.69
76434;BME280;65265;53.200;6.080;2023-07-02T19:02:23;100883.31;;;15.73;85.41
76434;BME280;65265;53.200;6.080;2023-07-02T19:07:16;100888.38;;;15.68;85.92
76434;BME280;65265;53.200;6.080;2023-07-02T19:12:09;100889.28;;;15.69;87.47
76434;BME280;65265;53.200;6.080;2023-07-02T19:17:07;100884.13;;;15.69;86.92
76434;BME280;65265;53.200;6.080;2023-07-02T19:22:03;100878.97;;;15.69;86.72
76434;BME280;65265;53.200;6.080;2023-07-02T19:26:56;100870.44;;;15.73;86.19
76434;BME280;65265;53.200;6.080;2023-07-02T19:31:48;100869.63;;;15.75;85.43
76434;BME280;65265;53.200;6.080;2023-07-02T19:36:44;100862.06;;;15.84;83.99
76434;BME280;65265;53.200;6.080;2023-07-02T19:41:37;100865.59;;;15.89;82.80
76434;BME280;65265;53.200;6.080;2023-07-02T19:46:30;100870.03;;;15.96;81.68
76434;BME280;65265;53.200;6.080;2023-07-02T19:51:22;100874.44;;;16.03;80.87
76434;BME280;65265;53.200;6.080;2023-07-02T19:56:18;100871.16;;;16.10;80.52
76434;BME280;65265;53.200;6.080;2023-07-02T20:01:12;100835.72;;;16.00;80.69
76434;BME280;65265;53.200;6.080;2023-07-02T20:06:05;100860.78;;;16.09;80.34
76434;BME280;65265;53.200;6.080;2023-07-02T20:10:58;100865.94;;;16.09;80.32
76434;BME280;65265;53.200;6.080;2023-07-02T20:15:53;100867.63;;;16.07;81.21
76434;BME280;65265;53.200;6.080;2023-07-02T20:20:47;100871.94;;;16.08;82.57
76434;BME280;65265;53.200;6.080;2023-07-02T20:25:43;100875.25;;;15.99;82.48
76434;BME280;65265;53.200;6.080;2023-07-02T20:30:36;100851.00;;;15.91;81.95
76434;BME280;65265;53.200;6.080;2023-07-02T20:35:29;100864.81;;;15.93;80.89
76434;BME280;65265;53.200;6.080;2023-07-02T20:40:21;100859.50;;;15.84;81.77
76434;BME280;65265;53.200;6.080;2023-07-02T20:45:14;100864.66;;;15.84;81.24
76434;BME280;65265;53.200;6.080;2023-07-02T20:50:08;100850.78;;;15.79;81.69
76434;BME280;65265;53.200;6.080;2023-07-02T20:55:05;100853.31;;;15.76;80.91
76434;BME280;65265;53.200;6.080;2023-07-02T21:00:00;100848.13;;;15.75;80.87
76434;BME280;65265;53.200;6.080;2023-07-02T21:04:54;100850.75;;;15.76;79.95
76434;BME280;65265;53.200;6.080;2023-07-02T21:09:47;100853.28;;;15.75;79.10
76434;BME280;65265;53.200;6.080;2023-07-02T21:14:47;100858.38;;;15.72;77.65
76434;BME280;65265;53.200;6.080;2023-07-02T21:19:40;100854.03;;;15.69;77.86
76434;BME280;65265;53.200;6.080;2023-07-02T21:24:33;100848.94;;;15.72;77.92
76434;BME280;65265;53.200;6.080;2023-07-02T21:29:26;100844.56;;;15.67;76.83
76434;BME280;65265;53.200;6.080;2023-07-02T21:34:21;100848.81;;;15.66;76.53
76434;BME280;65265;53.200;6.080;2023-07-02T21:39:17;100847.03;;;15.62;76.49
76434;BME280;65265;53.200;6.080;2023-07-02T21:44:10;100835.00;;;15.61;76.15
76434;BME280;65265;53.200;6.080;2023-07-02T21:49:03;100835.75;;;15.56;76.71
76434;BME280;65265;53.200;6.080;2023-07-02T21:53:58;100826.41;;;15.64;76.18
76434;BME280;65265;53.200;6.080;2023-07-02T21:58:50;100835.97;;;15.68;75.92
76434;BME280;65265;53.200;6.080;2023-07-02T22:03:43;100827.31;;;15.64;76.68
76434;BME280;65265;53.200;6.080;2023-07-02T22:08:36;100832.41;;;15.61;76.89
76434;BME280;65265;53.200;6.080;2023-07-02T22:13:35;100827.16;;;15.58;77.07
76434;BME280;65265;53.200;6.080;2023-07-02T22:18:28;100833.16;;;15.57;78.26
76434;BME280;65265;53.200;6.080;2023-07-02T22:23:20;100824.59;;;15.58;78.37
76434;BME280;65265;53.200;6.080;2023-07-02T22:28:13;100819.38;;;15.55;78.20
76434;BME280;65265;53.200;6.080;2023-07-02T22:33:08;100808.22;;;15.56;78.95
76434;BME280;65265;53.200;6.080;2023-07-02T22:38:01;100786.44;;;15.41;79.00
76434;BME280;65265;53.200;6.080;2023-07-02T22:42:54;100802.03;;;15.47;79.65
76434;BME280;65265;53.200;6.080;2023-07-02T22:47:46;100794.31;;;15.47;79.10
76434;BME280;65265;53.200;6.080;2023-07-02T22:52:43;100792.56;;;15.46;78.88
76434;BME280;65265;53.200;6.080;2023-07-02T22:57:37;100791.72;;;15.47;79.38
76434;BME280;65265;53.200;6.080;2023-07-02T23:02:30;100791.78;;;15.50;77.80
76434;BME280;65265;53.200;6.080;2023-07-02T23:07:24;100782.25;;;15.46;77.51
76434;BME280;65265;53.200;6.080;2023-07-02T23:12:21;100781.38;;;15.45;78.16
76434;BME280;65265;53.200;6.080;2023-07-02T23:17:13;100770.06;;;15.37;78.33
76434;BME280;65265;53.200;6.080;2023-07-02T23:22:06;100772.72;;;15.42;78.18
76434;BME280;65265;53.200;6.080;2023-07-02T23:26:59;100765.06;;;15.45;78.08
76434;BME280;65265;53.200;6.080;2023-07-02T23:31:54;100765.03;;;15.43;77.63
76434;BME280;65265;53.200;6.080;2023-07-02T23:36:47;100754.75;;;15.45;78.14
76434;BME280;65265;53.200;6.080;2023-07-02T23:41:43;100747.00;;;15.43;78.19
76434;BME280;65265;53.200;6.080;2023-07-02T23:46:36;100748.78;;;15.47;79.15
76434;BME280;65265;53.200;6.080;2023-07-02T23:51:32;100739.31;;;15.46;79.43
76434;BME280;65265;53.200;6.080;2023-07-02T23:56:26;100741.06;;;15.49;80.36
